createdAt,value
2023-04-29T00:04:09.642Z,1001
2023-04-29T00:09:04.914Z,1001
2023-04-29T00:14:04.683Z,1001
2023-04-29T00:19:05.471Z,1000.9
2023-04-29T00:24:04.066Z,1000.9
2023-04-29T00:29:01.679Z,1001
2023-04-29T00:34:01.374Z,1001
2023-04-29T00:39:00.529Z,1000.9
2023-04-29T00:44:00.083Z,1001
2023-04-29T00:48:58.923Z,1001
2023-04-29T00:54:00.489Z,1001
2023-04-29T00:58:59.401Z,1001
2023-04-29T01:00:46.402Z,1001.1
2023-04-29T01:05:20.033Z,1001
2023-04-29T01:10:19.904Z,1001
2023-04-29T01:15:19.630Z,1001.1
2023-04-29T01:20:16.742Z,1001.1
2023-04-29T01:25:16.691Z,1001.1
2023-04-29T01:30:23.718Z,1001.1
2023-04-29T01:35:16.275Z,1001.1
2023-04-29T01:40:15.832Z,1001.1
2023-04-29T01:46:20.009Z,1001.1
2023-04-29T01:50:15.895Z,1001
2023-04-29T01:55:25.167Z,1001.1
2023-04-29T02:58:56.486Z,1001.5
2023-04-29T03:03:56.894Z,1001.5
2023-04-29T03:08:53.725Z,1001.5
2023-04-29T03:13:53.406Z,1001.5
2023-04-29T03:18:53.532Z,1001.5
2023-04-29T03:23:53.324Z,1001.5
2023-04-29T03:28:52.543Z,1001.5
2023-04-29T03:33:52.547Z,1001.5
2023-04-29T03:38:52.267Z,1001.5
2023-04-29T03:43:51.707Z,1001.5
2023-04-29T03:48:53.066Z,1001.6
2023-04-29T03:53:49.393Z,1001.7
2023-04-29T03:58:48.850Z,1001.7
2023-04-29T04:00:35.364Z,1001.7
2023-04-29T04:05:19.588Z,1001.8
2023-04-29T04:10:19.972Z,1001.8
2023-04-29T04:15:19.273Z,1001.9
2023-04-29T04:20:19.785Z,1001.9
2023-04-29T04:25:19.774Z,1002
2023-04-29T04:30:07.274Z,1002.1
2023-04-29T04:35:07.501Z,1002.1
2023-04-29T04:40:07.284Z,1002.2
2023-04-29T04:45:06.893Z,1002.3
2023-04-29T04:50:06.244Z,1002.4
2023-04-29T04:55:05.738Z,1002.5
2023-04-29T04:59:17.235Z,1002.5
2023-04-29T05:04:17.489Z,1002.7
2023-04-29T05:09:17.934Z,1002.7
2023-04-29T06:09:16.543Z,1003.2
2023-04-29T06:14:08.250Z,1003.2
2023-04-29T06:19:08.367Z,1003.3
2023-04-29T06:29:09.306Z,1003.3
2023-04-29T06:34:05.933Z,1003.4
2023-04-29T06:44:06.857Z,1003.5
2023-04-29T06:49:04.376Z,1003.6
2023-04-29T06:59:04.814Z,1003.7
2023-04-29T07:00:50.771Z,1003.7
2023-04-29T07:05:27.259Z,1003.8
2023-04-29T07:10:23.895Z,1003.8
2023-04-29T07:15:23.662Z,1003.9
2023-04-29T07:20:23.182Z,1003.9
2023-04-29T07:25:23.518Z,1004
2023-04-29T07:30:20.576Z,1004
2023-04-29T07:35:20.274Z,1004
2023-04-29T07:43:34.122Z,1005.1
2023-04-29T07:49:24.277Z,1004
2023-04-29T07:54:23.170Z,1004.1
2023-04-29T07:59:23.091Z,1004.1
2023-04-29T08:04:22.993Z,1004.2
2023-04-29T08:09:23.848Z,1004.2
2023-04-29T08:14:19.569Z,1004.3
2023-04-29T08:19:19.332Z,1004.3
2023-04-29T08:24:18.504Z,1004.3
2023-04-29T08:29:18.481Z,1004.1
2023-04-29T08:34:17.807Z,1004.1
2023-04-29T08:39:17.781Z,1004
2023-04-29T08:44:17.914Z,1004.1
2023-04-29T08:49:17.477Z,1004
2023-04-29T08:54:18.525Z,1004.1
2023-04-29T08:59:24.660Z,1004.2
2023-04-29T09:04:24.175Z,1004.3
2023-04-29T09:09:24.173Z,1004.4
2023-04-29T09:14:21.906Z,1004.5
2023-04-29T09:19:22.095Z,1004.6
2023-04-29T09:24:23.342Z,1004.6
2023-04-29T09:29:20.094Z,1004.6
2023-04-29T09:34:21.052Z,1004.6
2023-04-29T09:39:20.052Z,1004.6
2023-04-29T09:44:19.513Z,1004.6
2023-04-29T09:49:19.675Z,1004.6
2023-04-29T09:54:08.072Z,1004.6
2023-04-29T09:59:08.001Z,1004.5
2023-04-29T10:04:08.178Z,1004.5
2023-04-29T10:09:07.693Z,1004.6
2023-04-29T10:14:08.813Z,1004.6
2023-04-29T10:19:05.176Z,1004.7
2023-04-29T10:24:04.950Z,1004.8
2023-04-29T10:29:03.960Z,1004.9
2023-04-29T10:34:03.728Z,1004.9
2023-04-29T10:39:01.419Z,1004.9
2023-04-29T10:44:02.872Z,1004.8
2023-04-29T10:49:01.292Z,1004.9
2023-04-29T10:54:03.110Z,1004.7
2023-04-29T10:58:59.663Z,1004.6
2023-04-29T11:00:45.682Z,1004.6
2023-04-29T11:05:20.811Z,1004.5
2023-04-29T11:10:20.580Z,1004.5
2023-04-29T11:15:19.111Z,1004.6
2023-04-29T11:20:19.765Z,1004.6
2023-04-29T11:25:19.190Z,1004.7
2023-04-29T11:30:20.197Z,1004.8
2023-04-29T11:35:16.286Z,1004.8
2023-04-29T11:40:15.593Z,1004.8
2023-04-29T11:45:25.447Z,1004.8
2023-04-29T11:50:26.814Z,1004.8
2023-04-29T11:55:24.011Z,1004.9
2023-04-29T12:04:45.128Z,1004.9
2023-04-29T12:09:43.175Z,1004.9
2023-04-29T12:14:43.255Z,1004.9
2023-04-29T12:19:42.868Z,1005
2023-04-29T12:24:42.823Z,1005
2023-04-29T12:29:40.202Z,1005
2023-04-29T12:34:39.782Z,1005.1
2023-04-29T12:39:39.307Z,1005.1
2023-04-29T12:44:39.152Z,1005.1
2023-04-29T12:49:38.403Z,1005.1
2023-04-29T12:54:37.952Z,1005.1
2023-04-29T12:59:23.445Z,1005
2023-04-29T13:04:23.788Z,1005.1
2023-04-29T13:09:25.157Z,1005.1
2023-04-29T13:14:21.153Z,1005
2023-04-29T13:19:54.734Z,1005.1
2023-04-29T13:24:19.870Z,1005.1
2023-04-29T13:29:19.146Z,1005.1
2023-04-29T13:34:20.318Z,1005.2
2023-04-29T13:39:19.965Z,1005.2
2023-04-29T13:44:45.862Z,1005.3
2023-04-29T13:50:22.149Z,1005.3
2023-04-29T14:04:15.999Z,1005.4
2023-04-29T14:49:08.578Z,1005.8
2023-04-29T14:54:08.564Z,1005.8
2023-04-29T14:59:07.406Z,1005.8
2023-04-29T15:04:07.518Z,1005.9
2023-04-29T15:09:04.814Z,1005.9
2023-04-29T15:14:04.672Z,1005.9
2023-04-29T15:19:06.949Z,1005.9
2023-04-29T15:24:05.153Z,1006
2023-04-29T15:29:01.657Z,1006
2023-04-29T15:34:01.549Z,1006
2023-04-29T15:39:00.750Z,1006.1
2023-04-29T15:44:00.527Z,1006.1
2023-04-29T15:48:58.112Z,1006.1
2023-04-29T15:53:58.014Z,1006.1
2023-04-29T15:58:58.250Z,1006.2
2023-04-29T16:00:44.419Z,1006.2
2023-04-29T16:05:19.500Z,1006.2
2023-04-29T16:10:20.351Z,1006.2
2023-04-29T16:15:19.890Z,1006.2
2023-04-29T16:20:19.112Z,1006.1
2023-04-29T16:25:17.688Z,1006.1
2023-04-29T16:30:18.207Z,1006
2023-04-29T16:35:17.469Z,1006
2023-04-29T16:40:17.343Z,1006
2023-04-29T16:45:16.837Z,1006
2023-04-29T16:50:26.287Z,1006
2023-04-29T16:55:27.627Z,1006.1
2023-04-29T18:04:21.967Z,1006.4
2023-04-29T18:09:20.606Z,1006.4
2023-04-29T18:14:08.204Z,1006.4
2023-04-29T18:19:07.988Z,1006.4
2023-04-29T18:24:07.900Z,1006.4
2023-04-29T18:29:06.491Z,1006.4
2023-04-29T18:34:05.585Z,1006.4
2023-04-29T18:39:06.568Z,1006.5
2023-04-29T18:44:06.112Z,1006.5
2023-04-29T18:49:06.663Z,1006.5
2023-04-29T18:54:05.385Z,1006.5
2023-04-29T18:59:04.406Z,1006.6
2023-04-29T19:09:04.114Z,1006.7
2023-04-29T19:14:02.083Z,1006.8
2023-04-29T19:19:01.071Z,1006.8
2023-04-29T19:24:00.763Z,1006.9
2023-04-29T19:28:59.717Z,1006.9
2023-04-29T19:33:59.964Z,1007
2023-04-29T19:38:59.530Z,1006.9
2023-04-29T19:43:57.234Z,1006.9
2023-04-29T19:48:57.291Z,1007
2023-04-29T19:53:58.910Z,1007
2023-04-29T19:58:56.893Z,1007
2023-04-29T20:00:44.870Z,1007
2023-04-29T20:05:18.496Z,1007
2023-04-29T20:10:18.089Z,1007.1
2023-04-29T20:15:17.292Z,1007.1
2023-04-29T20:20:17.326Z,1007
2023-04-29T20:25:16.908Z,1007.1
2023-04-29T20:30:17.105Z,1007.2
2023-04-29T20:35:17.737Z,1007.1
2023-04-29T20:40:24.949Z,1007.1
2023-04-29T20:45:24.362Z,1007.2
2023-04-29T20:50:24.135Z,1007.2
2023-04-29T20:55:21.929Z,1007.2
2023-04-29T21:04:41.681Z,1007.3
2023-04-29T21:09:40.420Z,1007.3
2023-04-29T21:14:41.505Z,1007.3
2023-04-29T21:19:40.350Z,1007.3
2023-04-29T21:24:39.443Z,1007.3
2023-04-29T21:29:40.260Z,1007.3
2023-04-29T21:34:37.153Z,1007.3
2023-04-29T21:39:37.099Z,1007.3
2023-04-29T21:44:36.018Z,1007.4
2023-04-29T21:49:37.081Z,1007.4
2023-04-29T21:54:35.020Z,1007.4
2023-04-29T21:59:36.524Z,1007.4
2023-04-29T22:04:21.131Z,1007.4
2023-04-29T22:09:17.405Z,1007.4
2023-04-29T22:14:17.188Z,1007.5
2023-04-29T22:19:18.602Z,1007.5
2023-04-29T22:24:17.727Z,1007.5
2023-04-29T22:29:16.990Z,1007.5
2023-04-29T22:34:15.851Z,1007.5
2023-04-29T22:39:16.691Z,1007.5
2023-04-29T22:44:18.418Z,1007.6
2023-04-29T22:49:24.994Z,1007.6
2023-04-29T23:04:22.595Z,1007.6
2023-04-29T23:39:07.740Z,1007.7
2023-04-29T23:44:06.882Z,1007.7
2023-04-29T23:49:07.360Z,1007.7
2023-04-29T23:54:05.771Z,1007.7
2023-04-29T23:59:06.578Z,1007.7
